createdAt,value
2018-06-21T00:00:59.446Z,19.46
2018-06-21T00:01:59.446Z,19.43
2018-06-21T00:02:59.428Z,19.4
2018-06-21T00:03:59.153Z,19.4
2018-06-21T00:04:59.143Z,19.43
2018-06-21T00:05:59.397Z,19.36
2018-06-21T00:06:59.121Z,19.35
2018-06-21T00:07:59.425Z,19.31
2018-06-21T00:08:59.626Z,19.36
2018-06-21T00:09:59.622Z,19.31
2018-06-21T00:10:59.342Z,19.35
2018-06-21T00:11:59.071Z,19.32
2018-06-21T00:12:59.588Z,19.21
2018-06-21T00:13:59.590Z,19.21
2018-06-21T00:14:59.313Z,19.23
2018-06-21T00:15:59.299Z,19.24
2018-06-21T00:16:59.558Z,19.18
2018-06-21T00:17:59.276Z,19.25
2018-06-21T00:18:59.264Z,19.18
2018-06-21T00:19:59.253Z,19.2
2018-06-21T00:20:59.249Z,19.24
2018-06-21T00:21:59.234Z,19.25
2018-06-21T00:22:59.232Z,19.23
2018-06-21T00:23:59.214Z,19.17
2018-06-21T00:24:59.201Z,19.17
2018-06-21T00:25:59.464Z,19.18
2018-06-21T00:26:58.924Z,19.24
2018-06-21T00:27:58.913Z,19.17
2018-06-21T00:28:59.475Z,19.14
2018-06-21T00:29:59.150Z,19.1
2018-06-21T00:30:59.402Z,19.15
2018-06-21T00:31:59.400Z,19.1
2018-06-21T00:32:59.123Z,19.08
2018-06-21T00:33:59.388Z,19.14
2018-06-21T00:34:59.099Z,19.14
2018-06-21T00:35:59.086Z,19.11
2018-06-21T00:36:59.341Z,19.14
2018-06-21T00:37:58.799Z,19.06
2018-06-21T00:38:59.060Z,19.06
2018-06-21T00:39:59.042Z,19.06
2018-06-21T00:40:59.037Z,19.08
2018-06-21T00:41:59.310Z,19.01
2018-06-21T00:42:59.284Z,19.06
2018-06-21T00:43:59.008Z,19.02
2018-06-21T00:44:59.261Z,19.05
2018-06-21T00:45:58.983Z,19.02
2018-06-21T00:46:59.234Z,18.95
2018-06-21T00:47:59.230Z,19.05
2018-06-21T00:48:58.949Z,18.97
2018-06-21T00:49:58.954Z,19.02
2018-06-21T00:50:58.926Z,18.86
2018-06-21T00:51:58.663Z,18.92
2018-06-21T00:52:58.907Z,18.95
2018-06-21T00:53:58.902Z,18.92
2018-06-21T00:54:58.889Z,18.95
2018-06-21T00:55:58.878Z,18.92
2018-06-21T00:56:59.129Z,18.86
2018-06-21T00:57:59.170Z,18.83
2018-06-21T00:58:58.844Z,18.79
2018-06-21T00:59:58.839Z,18.8
2018-06-21T01:00:59.097Z,18.79
2018-06-21T01:01:59.090Z,18.77
2018-06-21T01:02:58.805Z,18.79
2018-06-21T01:03:58.790Z,18.79
2018-06-21T01:04:59.053Z,18.8
2018-06-21T01:05:59.035Z,18.65
2018-06-21T01:06:59.024Z,18.7
2018-06-21T01:07:58.750Z,18.61
2018-06-21T01:08:58.736Z,18.62
2018-06-21T01:09:58.465Z,18.67
2018-06-21T01:10:58.978Z,18.68
2018-06-21T01:11:58.979Z,18.65
2018-06-21T01:12:58.693Z,18.68
2018-06-21T01:13:58.427Z,18.62
2018-06-21T01:14:58.946Z,18.59
2018-06-21T01:15:58.865Z,18.57
2018-06-21T01:16:58.970Z,18.55
2018-06-21T01:17:58.375Z,18.59
2018-06-21T01:18:58.902Z,18.61
2018-06-21T01:19:58.625Z,18.62
2018-06-21T01:20:58.613Z,18.54
2018-06-21T01:21:58.598Z,18.57
2018-06-21T01:22:58.590Z,18.65
2018-06-21T01:23:58.891Z,18.58
2018-06-21T01:24:58.840Z,18.5
2018-06-21T01:25:58.289Z,18.62
2018-06-21T01:26:58.808Z,18.59
2018-06-21T01:27:58.535Z,18.68
2018-06-21T01:28:58.520Z,18.61
2018-06-21T01:29:58.525Z,18.62
2018-06-21T01:30:58.501Z,18.52
2018-06-21T01:31:58.494Z,18.52
2018-06-21T01:32:58.483Z,18.52
2018-06-21T01:33:58.738Z,18.52
2018-06-21T01:34:58.455Z,18.61
2018-06-21T01:35:58.756Z,18.54
2018-06-21T01:36:58.432Z,18.46
2018-06-21T01:37:58.424Z,18.5
2018-06-21T01:38:58.417Z,18.52
2018-06-21T01:39:58.664Z,18.5
2018-06-21T01:40:58.391Z,18.49
2018-06-21T01:41:58.379Z,18.46
2018-06-21T01:42:58.365Z,18.44
2018-06-21T01:43:58.615Z,18.43
2018-06-21T01:44:58.621Z,18.39
2018-06-21T01:45:58.330Z,18.43
2018-06-21T01:46:58.585Z,18.49
2018-06-21T01:47:58.580Z,18.34
2018-06-21T01:48:58.040Z,18.34
2018-06-21T01:49:58.557Z,18.34
2018-06-21T01:50:58.542Z,18.28
2018-06-21T01:51:58.601Z,18.31
2018-06-21T01:52:58.256Z,18.29
2018-06-21T01:53:58.507Z,18.31
2018-06-21T01:54:58.496Z,18.37
2018-06-21T01:55:58.485Z,18.24
2018-06-21T01:56:57.946Z,18.24
2018-06-21T01:57:57.934Z,18.22
2018-06-21T01:58:58.196Z,18.25
2018-06-21T01:59:58.439Z,18.22
2018-06-21T02:00:58.435Z,18.27
2018-06-21T02:01:57.891Z,18.28
2018-06-21T02:02:58.144Z,18.21
2018-06-21T02:03:58.133Z,18.15
2018-06-21T02:04:58.380Z,18.15
2018-06-21T02:05:58.378Z,18.18
2018-06-21T02:06:58.365Z,18.15
2018-06-21T02:07:58.409Z,18.19
2018-06-21T02:08:58.079Z,18.12
2018-06-21T02:09:58.332Z,18.06
2018-06-21T02:10:58.061Z,18.06
2018-06-21T02:11:58.306Z,18.06
2018-06-21T02:12:58.295Z,18.1
2018-06-21T02:13:58.288Z,18.07
2018-06-21T02:14:58.008Z,18.07
2018-06-21T02:15:57.736Z,18.09
2018-06-21T02:16:57.985Z,18.07
2018-06-21T02:17:58.247Z,18.12
2018-06-21T02:18:57.960Z,18.09
2018-06-21T02:19:57.954Z,18.09
2018-06-21T02:20:58.223Z,18.06
2018-06-21T02:21:57.936Z,18.09
2018-06-21T02:22:57.655Z,18.12
2018-06-21T02:23:58.175Z,18.1
2018-06-21T02:24:58.160Z,18.06
2018-06-21T02:25:57.883Z,18.06
2018-06-21T02:26:58.138Z,18.15
2018-06-21T02:27:57.864Z,18.07
2018-06-21T02:28:57.854Z,18.06
2018-06-21T02:29:57.850Z,18.07
2018-06-21T02:30:57.833Z,18
2018-06-21T02:31:58.086Z,17.97
2018-06-21T02:32:57.598Z,18
2018-06-21T02:33:58.064Z,17.92
2018-06-21T02:34:57.529Z,18.02
2018-06-21T02:35:57.778Z,18.02
2018-06-21T02:36:57.762Z,17.95
2018-06-21T02:37:57.757Z,17.94
2018-06-21T02:38:58.015Z,18.02
2018-06-21T02:39:58.006Z,17.95
2018-06-21T02:40:58.020Z,17.97
2018-06-21T02:41:57.440Z,17.95
2018-06-21T02:42:57.703Z,18.06
2018-06-21T02:43:57.946Z,18.09
2018-06-21T02:44:57.992Z,18.17
2018-06-21T02:45:57.675Z,18.09
2018-06-21T02:46:57.915Z,18.18
2018-06-21T02:47:57.907Z,18.17
2018-06-21T02:48:57.891Z,18.29
2018-06-21T02:49:57.624Z,18.31
2018-06-21T02:50:57.616Z,18.31
2018-06-21T02:51:57.598Z,18.36
2018-06-21T02:52:57.593Z,18.37
2018-06-21T02:53:57.583Z,18.43
2018-06-21T02:54:57.563Z,18.44
2018-06-21T02:55:57.552Z,18.5
2018-06-21T02:56:57.542Z,18.54
2018-06-21T02:57:57.796Z,18.54
2018-06-21T02:58:57.515Z,18.52
2018-06-21T02:59:57.242Z,18.59
2018-06-21T03:00:57.509Z,18.59
2018-06-21T03:01:57.749Z,18.57
2018-06-21T03:02:57.482Z,18.65
2018-06-21T03:03:57.554Z,18.68
2018-06-21T03:04:57.503Z,18.58
2018-06-21T03:05:57.175Z,18.74
2018-06-21T03:06:57.164Z,18.74
2018-06-21T03:07:57.698Z,18.82
2018-06-21T03:08:57.405Z,18.77
2018-06-21T03:09:57.665Z,18.74
2018-06-21T03:10:57.125Z,18.8
2018-06-21T03:11:57.108Z,18.76
2018-06-21T03:12:57.630Z,18.64
2018-06-21T03:13:57.350Z,18.61
2018-06-21T03:14:57.336Z,18.59
2018-06-21T03:15:57.796Z,18.57
2018-06-21T03:16:57.053Z,18.58
2018-06-21T03:17:57.043Z,18.59
2018-06-21T03:18:57.302Z,18.59
2018-06-21T03:19:57.282Z,18.55
2018-06-21T03:20:57.538Z,18.54
2018-06-21T03:21:57.341Z,18.59
2018-06-21T03:22:57.255Z,18.54
2018-06-21T03:23:57.240Z,18.5
2018-06-21T03:24:57.226Z,18.47
2018-06-21T03:25:57.217Z,18.47
2018-06-21T03:26:57.475Z,18.47
2018-06-21T03:27:57.198Z,18.43
2018-06-21T03:28:57.188Z,18.44
2018-06-21T03:29:57.174Z,18.44
2018-06-21T03:30:56.919Z,18.44
2018-06-21T03:31:57.418Z,18.4
2018-06-21T03:32:57.408Z,18.44
2018-06-21T03:33:56.861Z,18.34
2018-06-21T03:34:57.149Z,18.39
2018-06-21T03:35:57.370Z,18.39
2018-06-21T03:36:57.373Z,18.39
2018-06-21T03:37:57.083Z,18.4
2018-06-21T03:38:57.333Z,18.4
2018-06-21T03:39:57.331Z,18.44
2018-06-21T03:40:57.322Z,18.43
2018-06-21T03:41:57.044Z,18.44
2018-06-21T03:42:57.296Z,18.43
2018-06-21T03:43:57.280Z,18.43
2018-06-21T03:44:57.009Z,18.42
2018-06-21T03:45:56.995Z,18.42
2018-06-21T03:46:56.987Z,18.39
2018-06-21T03:47:56.975Z,18.37
2018-06-21T03:48:56.965Z,18.36
2018-06-21T03:49:57.213Z,18.37
2018-06-21T03:50:57.209Z,18.29
2018-06-21T03:51:57.191Z,18.31
2018-06-21T03:52:56.656Z,18.37
2018-06-21T03:53:56.641Z,18.34
2018-06-21T03:54:56.635Z,18.36
2018-06-21T03:55:57.145Z,18.36
2018-06-21T03:56:57.134Z,18.37
2018-06-21T03:57:56.597Z,18.28
2018-06-21T03:58:57.120Z,18.36
2018-06-21T03:59:56.838Z,18.34
2018-06-21T04:00:56.826Z,18.34
2018-06-21T04:01:56.865Z,18.37
2018-06-21T04:02:56.539Z,18.36
2018-06-21T04:03:57.093Z,18.4
2018-06-21T04:04:56.780Z,18.43
2018-06-21T04:05:56.819Z,18.43
2018-06-21T04:06:56.755Z,18.47
2018-06-21T04:07:56.478Z,18.47
2018-06-21T04:08:56.739Z,18.55
2018-06-21T04:09:56.728Z,18.5
2018-06-21T04:10:56.713Z,18.54
2018-06-21T04:11:56.444Z,18.54
2018-06-21T04:12:56.694Z,18.64
2018-06-21T04:13:56.942Z,18.5
2018-06-21T04:14:56.664Z,18.52
2018-06-21T04:15:56.654Z,18.64
2018-06-21T04:16:56.909Z,18.62
2018-06-21T04:17:56.904Z,18.67
2018-06-21T04:18:56.896Z,18.64
2018-06-21T04:19:56.608Z,18.64
2018-06-21T04:20:56.601Z,18.67
2018-06-21T04:21:56.325Z,18.77
2018-06-21T04:22:56.836Z,18.7
2018-06-21T04:23:56.566Z,18.74
2018-06-21T04:24:56.819Z,18.74
2018-06-21T04:25:56.550Z,18.77
2018-06-21T04:26:56.804Z,18.77
2018-06-21T04:27:56.812Z,18.82
2018-06-21T04:28:56.513Z,18.74
2018-06-21T04:29:56.768Z,18.76
2018-06-21T04:30:56.495Z,18.82
2018-06-21T04:31:56.479Z,18.83
2018-06-21T04:32:56.734Z,18.79
2018-06-21T04:33:56.728Z,18.83
2018-06-21T04:34:56.449Z,18.9
2018-06-21T04:35:56.697Z,18.91
2018-06-21T04:36:56.425Z,18.94
2018-06-21T04:37:56.606Z,18.97
2018-06-21T04:38:56.404Z,19.05
2018-06-21T04:39:56.388Z,18.99
2018-06-21T04:40:56.643Z,19.01
2018-06-21T04:41:56.628Z,19.14
2018-06-21T04:42:56.360Z,19.13
2018-06-21T04:43:56.089Z,19.11
2018-06-21T04:44:56.330Z,19.13
2018-06-21T04:45:56.447Z,19.21
2018-06-21T04:46:56.316Z,19.21
2018-06-21T04:47:56.301Z,19.2
2018-06-21T04:48:56.290Z,19.21
2018-06-21T04:49:56.552Z,19.23
2018-06-21T04:50:56.539Z,19.28
2018-06-21T04:51:56.260Z,19.35
2018-06-21T04:52:56.521Z,19.33
2018-06-21T04:53:56.235Z,19.33
2018-06-21T04:54:56.226Z,19.28
2018-06-21T04:55:56.493Z,19.29
2018-06-21T04:56:56.208Z,19.32
2018-06-21T04:57:56.199Z,19.32
2018-06-21T04:58:56.193Z,19.35
2018-06-21T04:59:55.907Z,19.33
2018-06-21T05:00:56.421Z,19.35
2018-06-21T05:01:56.415Z,19.33
2018-06-21T05:02:56.143Z,19.35
2018-06-21T05:03:56.397Z,19.31
2018-06-21T05:04:56.124Z,19.33
2018-06-21T05:05:56.115Z,19.32
2018-06-21T05:06:56.360Z,19.31
2018-06-21T05:07:56.361Z,19.32
2018-06-21T05:08:56.074Z,19.38
2018-06-21T05:09:55.797Z,19.39
2018-06-21T05:10:56.057Z,19.39
2018-06-21T05:11:56.307Z,19.33
2018-06-21T05:12:56.293Z,19.43
2018-06-21T05:13:56.288Z,19.42
2018-06-21T05:14:56.278Z,19.36
2018-06-21T05:15:55.941Z,19.32
2018-06-21T05:16:56.302Z,19.42
2018-06-21T05:17:56.254Z,19.38
2018-06-21T05:18:55.973Z,19.33
2018-06-21T05:19:56.234Z,19.33
2018-06-21T05:20:56.214Z,19.28
2018-06-21T05:21:55.939Z,19.29
2018-06-21T05:22:56.192Z,19.28
2018-06-21T05:23:56.182Z,19.33
2018-06-21T05:24:56.164Z,19.17
2018-06-21T05:25:56.156Z,19.14
2018-06-21T05:26:55.886Z,19.15
2018-06-21T05:27:55.607Z,19.14
2018-06-21T05:28:55.865Z,19.15
2018-06-21T05:29:55.854Z,19.11
2018-06-21T05:30:56.107Z,19.13
2018-06-21T05:31:55.826Z,18.99
2018-06-21T05:32:56.080Z,19.02
2018-06-21T05:33:56.074Z,19.06
2018-06-21T05:34:55.801Z,18.98
2018-06-21T05:35:56.050Z,19.01
2018-06-21T05:36:55.785Z,18.98
2018-06-21T05:37:55.765Z,18.98
2018-06-21T05:38:55.753Z,18.99
2018-06-21T05:39:55.743Z,18.86
2018-06-21T05:40:55.733Z,18.86
2018-06-21T05:41:55.986Z,18.86
2018-06-21T05:42:55.971Z,18.87
2018-06-21T05:43:55.699Z,18.8
2018-06-21T05:44:55.688Z,18.83
2018-06-21T05:45:55.943Z,18.8
2018-06-21T05:46:55.664Z,18.79
2018-06-21T05:47:55.924Z,18.64
2018-06-21T05:48:55.911Z,18.64
2018-06-21T05:49:55.638Z,18.65
2018-06-21T05:50:55.892Z,18.67
2018-06-21T05:51:55.874Z,18.58
2018-06-21T05:52:55.343Z,18.55
2018-06-21T05:53:55.858Z,18.57
2018-06-21T05:54:55.314Z,18.61
2018-06-21T05:55:55.566Z,18.49
2018-06-21T05:56:55.835Z,18.49
2018-06-21T05:57:55.541Z,18.47
2018-06-21T05:58:55.534Z,18.44
2018-06-21T05:59:55.793Z,18.36
2018-06-21T06:00:55.779Z,18.4
2018-06-21T06:01:55.872Z,18.39
2018-06-21T06:02:55.486Z,18.39
2018-06-21T06:03:55.211Z,18.24
2018-06-21T06:04:55.202Z,18.33
2018-06-21T06:05:55.715Z,18.27
2018-06-21T06:06:55.707Z,18.29
2018-06-21T06:07:55.428Z,18.27
2018-06-21T06:08:55.422Z,18.28
2018-06-21T06:09:55.471Z,18.27
2018-06-21T06:10:55.133Z,18.28
2018-06-21T06:11:55.389Z,18.25
2018-06-21T06:12:55.374Z,18.19
2018-06-21T06:13:55.629Z,18.21
2018-06-21T06:14:55.352Z,18.28
2018-06-21T06:15:55.075Z,18.12
2018-06-21T06:16:55.595Z,18.18
2018-06-21T06:17:55.576Z,18.12
2018-06-21T06:18:55.313Z,18.13
2018-06-21T06:19:55.291Z,18.15
2018-06-21T06:20:55.557Z,18.07
2018-06-21T06:21:55.530Z,18.15
2018-06-21T06:22:55.527Z,18.17
2018-06-21T06:23:55.518Z,18.02
2018-06-21T06:24:54.972Z,17.95
2018-06-21T06:25:55.224Z,17.84
2018-06-21T06:26:55.482Z,17.76
2018-06-21T06:27:55.201Z,17.62
2018-06-21T06:28:55.196Z,17.55
2018-06-21T06:29:55.439Z,17.53
2018-06-21T06:30:55.163Z,17.54
2018-06-21T06:31:55.161Z,17.51
2018-06-21T06:32:55.139Z,17.57
2018-06-21T06:33:55.123Z,17.55
2018-06-21T06:34:55.116Z,17.51
2018-06-21T06:35:55.105Z,17.51
2018-06-21T06:36:55.095Z,17.51
2018-06-21T06:37:55.079Z,17.43
2018-06-21T06:38:55.329Z,17.5
2018-06-21T06:39:55.059Z,17.5
2018-06-21T06:40:55.311Z,17.53
2018-06-21T06:41:55.355Z,17.41
2018-06-21T06:42:55.021Z,17.38
2018-06-21T06:43:55.014Z,17.36
2018-06-21T06:44:54.993Z,17.33
2018-06-21T06:45:54.724Z,17.38
2018-06-21T06:46:54.971Z,17.38
2018-06-21T06:47:54.963Z,17.4
2018-06-21T06:48:55.225Z,17.33
2018-06-21T06:49:54.676Z,17.35
2018-06-21T06:50:55.196Z,17.28
2018-06-21T06:51:54.913Z,17.32
2018-06-21T06:52:54.905Z,17.32
2018-06-21T06:53:54.888Z,17.32
2018-06-21T06:54:55.327Z,17.3
2018-06-21T06:55:54.864Z,17.32
2018-06-21T06:56:54.866Z,17.32
2018-06-21T06:57:54.582Z,17.38
2018-06-21T06:58:54.842Z,17.33
2018-06-21T06:59:54.890Z,17.38
2018-06-21T07:00:54.820Z,17.43
2018-06-21T07:01:54.803Z,17.43
2018-06-21T07:02:54.525Z,17.4
2018-06-21T07:03:54.779Z,17.51
2018-06-21T07:04:54.501Z,17.55
2018-06-21T07:05:54.746Z,17.5
2018-06-21T07:06:54.994Z,17.46
2018-06-21T07:07:54.996Z,17.51
2018-06-21T07:08:54.980Z,17.54
2018-06-21T07:09:54.699Z,17.54
2018-06-21T07:10:54.958Z,17.51
2018-06-21T07:11:54.952Z,17.46
2018-06-21T07:12:54.403Z,17.5
2018-06-21T07:13:54.651Z,17.51
2018-06-21T07:14:54.640Z,17.54
2018-06-21T07:15:54.628Z,17.57
2018-06-21T07:16:54.554Z,17.51
2018-06-21T07:17:54.341Z,17.69
2018-06-21T07:18:54.597Z,17.78
2018-06-21T07:19:54.592Z,17.79
2018-06-21T07:20:54.571Z,17.73
2018-06-21T07:21:54.558Z,17.94
2018-06-21T07:22:54.811Z,17.97
2018-06-21T07:23:54.802Z,18.06
2018-06-21T07:24:54.535Z,18.33
2018-06-21T07:25:54.516Z,18.46
2018-06-21T07:26:54.506Z,18.62
2018-06-21T07:27:54.760Z,18.68
2018-06-21T07:28:54.482Z,18.57
2018-06-21T07:29:54.560Z,18.68
2018-06-21T07:30:54.722Z,18.64
2018-06-21T07:31:54.481Z,18.74
2018-06-21T07:32:54.710Z,18.83
2018-06-21T07:33:54.745Z,18.79
2018-06-21T07:34:54.417Z,18.68
2018-06-21T07:35:54.407Z,18.64
2018-06-21T07:36:54.402Z,18.84
2018-06-21T07:37:54.384Z,18.84
2018-06-21T07:38:54.140Z,18.91
2018-06-21T07:39:54.633Z,18.97
2018-06-21T07:40:54.350Z,18.92
2018-06-21T07:41:54.614Z,18.97
2018-06-21T07:42:54.595Z,18.97
2018-06-21T07:43:54.590Z,19.13
2018-06-21T07:44:54.313Z,19.42
2018-06-21T07:45:54.573Z,19.55
2018-06-21T07:46:54.074Z,19.57
2018-06-21T07:47:54.602Z,19.57
2018-06-21T07:48:54.273Z,19.43
2018-06-21T07:49:54.004Z,19.39
2018-06-21T07:50:54.251Z,19.39
2018-06-21T07:51:53.982Z,19.28
2018-06-21T07:52:54.507Z,19.25
2018-06-21T07:53:54.666Z,19.2
2018-06-21T07:54:54.478Z,19.17
2018-06-21T07:55:54.208Z,19.13
2018-06-21T07:56:53.931Z,19.06
2018-06-21T07:57:53.923Z,18.98
2018-06-21T07:58:54.444Z,18.99
2018-06-21T07:59:54.171Z,18.91
2018-06-21T08:00:54.161Z,18.77
2018-06-21T08:01:54.424Z,18.7
2018-06-21T08:02:54.412Z,18.57
2018-06-21T08:03:54.400Z,18.52
2018-06-21T08:04:54.428Z,18.34
2018-06-21T08:05:54.376Z,18.15
2018-06-21T08:06:54.363Z,17.97
2018-06-21T08:07:53.827Z,17.88
2018-06-21T08:08:54.079Z,17.74
2018-06-21T08:09:53.803Z,17.57
2018-06-21T08:10:54.107Z,17.63
2018-06-21T08:11:54.043Z,17.59
2018-06-21T08:12:54.080Z,17.66
2018-06-21T08:13:54.296Z,17.71
2018-06-21T08:14:54.278Z,17.92
2018-06-21T08:15:54.306Z,18.24
2018-06-21T08:16:53.742Z,18.29
2018-06-21T08:17:53.981Z,18.24
2018-06-21T08:18:54.237Z,18.27
2018-06-21T08:19:53.962Z,18.19
2018-06-21T08:20:54.222Z,18.24
2018-06-21T08:21:54.209Z,18.27
2018-06-21T08:22:53.672Z,18.24
2018-06-21T08:23:53.656Z,18.4
2018-06-21T08:24:53.659Z,18.73
2018-06-21T08:25:53.640Z,18.98
2018-06-21T08:26:54.090Z,19.23
2018-06-21T08:27:53.885Z,19.4
2018-06-21T08:28:54.397Z,19.7
2018-06-21T08:29:54.132Z,20.02
2018-06-21T08:30:54.118Z,19.8
2018-06-21T08:31:53.581Z,19.7
2018-06-21T08:32:53.837Z,19.6
2018-06-21T08:33:54.093Z,19.31
2018-06-21T08:34:54.093Z,19.38
2018-06-21T08:35:54.077Z,19.7
2018-06-21T08:36:54.080Z,19.69
2018-06-21T08:37:53.534Z,19.86
2018-06-21T08:38:54.191Z,19.53
2018-06-21T08:39:54.055Z,19.61
2018-06-21T08:40:54.036Z,19.42
2018-06-21T08:41:54.031Z,19.39
2018-06-21T08:42:53.490Z,19.61
2018-06-21T08:43:54.011Z,19.38
2018-06-21T08:44:53.743Z,19.38
2018-06-21T08:45:54.229Z,19.23
2018-06-21T08:46:53.991Z,19.46
2018-06-21T08:47:53.450Z,19.63
2018-06-21T08:48:53.972Z,19.38
2018-06-21T08:49:53.704Z,19.39
2018-06-21T08:50:53.690Z,19.65
2018-06-21T08:51:53.710Z,19.39
2018-06-21T08:52:53.945Z,19.33
2018-06-21T08:53:53.946Z,19.39
2018-06-21T08:54:53.929Z,19.6
2018-06-21T08:55:53.913Z,20.16
2018-06-21T08:56:53.910Z,20.43
2018-06-21T08:57:53.636Z,20.24
2018-06-21T08:58:53.895Z,20
2018-06-21T08:59:53.618Z,19.65
2018-06-21T09:00:53.615Z,19.39
2018-06-21T09:01:53.884Z,19.32
2018-06-21T09:02:53.866Z,19.29
2018-06-21T09:03:54.228Z,19.39
2018-06-21T09:04:53.588Z,19.32
2018-06-21T09:05:53.861Z,19.29
2018-06-21T09:06:53.578Z,19.24
2018-06-21T09:07:53.562Z,19.76
2018-06-21T09:08:53.551Z,19.66
2018-06-21T09:09:53.547Z,19.54
2018-06-21T09:10:53.809Z,19.68
2018-06-21T09:11:53.538Z,19.46
2018-06-21T09:12:53.263Z,19.33
2018-06-21T09:13:53.254Z,19.24
2018-06-21T09:14:53.240Z,19.32
2018-06-21T09:15:54.080Z,19.53
2018-06-21T09:16:53.705Z,19.32
2018-06-21T09:17:53.490Z,19.25
2018-06-21T09:18:53.482Z,19.11
2018-06-21T09:19:53.472Z,19.06
2018-06-21T09:20:53.726Z,19.1
2018-06-21T09:21:53.446Z,19.28
2018-06-21T09:22:53.711Z,19.61
2018-06-21T09:23:53.170Z,19.55
2018-06-21T09:24:53.427Z,19.66
2018-06-21T09:25:53.152Z,20.15
2018-06-21T09:26:53.412Z,20.58
2018-06-21T09:27:53.666Z,20.87
2018-06-21T09:28:53.397Z,20.89
2018-06-21T09:29:53.440Z,20.79
2018-06-21T09:30:53.381Z,20.64
2018-06-21T09:31:53.380Z,20.62
2018-06-21T09:32:53.629Z,20.62
2018-06-21T09:33:53.363Z,20.41
2018-06-21T09:34:53.140Z,20.25
2018-06-21T09:35:53.354Z,20.25
2018-06-21T09:36:53.374Z,20.1
2018-06-21T09:37:53.366Z,20.08
2018-06-21T09:38:53.329Z,19.97
2018-06-21T09:39:53.464Z,19.73
2018-06-21T09:40:53.053Z,19.47
2018-06-21T09:41:53.659Z,19.35
2018-06-21T09:42:53.308Z,19.33
2018-06-21T09:44:08.523Z,19.17
2018-06-21T09:44:53.018Z,19.05
2018-06-21T09:45:53.018Z,18.83
2018-06-21T09:46:53.313Z,18.79
2018-06-21T09:47:53.264Z,18.84
2018-06-21T09:48:53.519Z,18.77
2018-06-21T09:49:53.512Z,18.61
2018-06-21T09:50:53.239Z,18.62
2018-06-21T09:51:53.249Z,18.43
2018-06-21T09:52:53.502Z,18.21
2018-06-21T09:53:53.221Z,18.24
2018-06-21T09:54:53.477Z,18.13
2018-06-21T09:55:53.454Z,18.04
2018-06-21T09:56:53.453Z,18.13
2018-06-21T09:57:53.380Z,18.02
2018-06-21T09:58:53.178Z,17.82
2018-06-21T09:59:53.420Z,17.82
2018-06-21T10:00:53.157Z,17.81
2018-06-21T10:01:53.136Z,17.7
2018-06-21T10:02:53.397Z,18.07
2018-06-21T10:03:53.126Z,18.24
2018-06-21T10:04:53.168Z,18.55
2018-06-21T10:05:53.103Z,18.91
2018-06-21T10:06:53.369Z,19.43
2018-06-21T10:07:53.357Z,19.7
2018-06-21T10:08:53.342Z,20.02
2018-06-21T10:09:53.071Z,20.31
2018-06-21T10:10:53.333Z,20.61
2018-06-21T10:11:52.788Z,20.84
2018-06-21T10:12:53.314Z,21.45
2018-06-21T10:13:53.310Z,21.78
2018-06-21T10:14:53.043Z,21.72
2018-06-21T10:15:53.129Z,21.53
2018-06-21T10:16:53.293Z,21.29
2018-06-21T10:17:53.018Z,20.83
2018-06-21T10:18:53.292Z,20.77
2018-06-21T10:19:53.119Z,20.64
2018-06-21T10:20:53.004Z,20.42
2018-06-21T10:21:53.314Z,20.09
2018-06-21T10:22:52.999Z,20
2018-06-21T10:23:52.991Z,20.27
2018-06-21T10:24:52.977Z,20.35
2018-06-21T10:25:53.251Z,20.12
2018-06-21T10:26:52.976Z,19.88
2018-06-21T10:27:52.965Z,19.7
2018-06-21T10:28:53.231Z,19.38
2018-06-21T10:29:53.270Z,19.33
2018-06-21T10:30:52.951Z,19.14
2018-06-21T10:31:53.206Z,19.11
2018-06-21T10:32:52.941Z,19.61
2018-06-21T10:33:52.936Z,20.42
2018-06-21T10:34:52.921Z,21.08
2018-06-21T10:35:53.179Z,21.76
2018-06-21T10:36:52.645Z,22.29
2018-06-21T10:37:53.174Z,22.57
2018-06-21T10:38:52.901Z,22.75
2018-06-21T10:39:52.632Z,22.89
2018-06-21T10:40:53.153Z,23.08
2018-06-21T10:41:52.888Z,23.31
2018-06-21T10:42:53.151Z,23.32
2018-06-21T10:43:53.150Z,22.9
2018-06-21T10:44:53.138Z,22.44
2018-06-21T10:45:52.614Z,21.92
2018-06-21T10:46:52.872Z,21.56
2018-06-21T10:47:52.866Z,20.98
2018-06-21T10:48:53.136Z,20.54
2018-06-21T10:49:53.123Z,20.72
2018-06-21T10:50:53.120Z,20.41
2018-06-21T10:51:52.858Z,20.71
2018-06-21T10:52:53.118Z,21.29
2018-06-21T10:53:52.845Z,21.75
2018-06-21T10:54:53.103Z,22.43
2018-06-21T10:55:52.834Z,22.87
2018-06-21T10:56:53.092Z,23.27
2018-06-21T10:57:52.828Z,23.77
2018-06-21T10:58:52.824Z,23.76
2018-06-21T10:59:53.085Z,23.92
2018-06-21T11:00:53.097Z,24.35
2018-06-21T11:01:52.841Z,24.56
2018-06-21T11:02:53.085Z,24.38
2018-06-21T11:03:52.845Z,24.44
2018-06-21T11:04:53.083Z,23.97
2018-06-21T11:05:53.079Z,23.58
2018-06-21T11:06:52.821Z,22.74
2018-06-21T11:07:52.816Z,22.25
2018-06-21T11:08:52.810Z,21.94
2018-06-21T11:09:52.812Z,21.67
2018-06-21T11:10:53.078Z,21.91
2018-06-21T11:11:52.813Z,22.62
2018-06-21T11:12:53.074Z,23.26
2018-06-21T11:13:52.804Z,23.32
2018-06-21T11:14:53.315Z,23.4
2018-06-21T11:15:52.801Z,23.76
2018-06-21T11:16:53.050Z,23.42
2018-06-21T11:17:52.802Z,22.92
2018-06-21T11:18:52.802Z,22.94
2018-06-21T11:19:53.058Z,22.43
2018-06-21T11:20:52.801Z,21.95
2018-06-21T11:21:53.066Z,21.24
2018-06-21T11:22:53.056Z,20.81
2018-06-21T11:23:52.791Z,20.59
2018-06-21T11:24:52.792Z,20.93
2018-06-21T11:25:52.791Z,20.93
2018-06-21T11:26:53.055Z,20.9
2018-06-21T11:27:53.194Z,21.45
2018-06-21T11:28:52.786Z,22.02
2018-06-21T11:29:53.039Z,22.65
2018-06-21T11:30:52.779Z,22.41
2018-06-21T11:31:52.772Z,22.68
2018-06-21T11:32:53.036Z,22.71
2018-06-21T11:33:52.781Z,22.83
2018-06-21T11:34:53.034Z,23.11
2018-06-21T11:35:52.767Z,23.29
2018-06-21T11:36:52.504Z,23.38
2018-06-21T11:37:52.767Z,23.8
2018-06-21T11:38:53.026Z,24.19
2018-06-21T11:39:53.025Z,24.32
2018-06-21T11:40:52.755Z,24.45
2018-06-21T11:41:52.761Z,24.56
2018-06-21T11:42:53.029Z,25.09
2018-06-21T11:43:53.021Z,25.32
2018-06-21T11:44:52.499Z,25.38
2018-06-21T11:45:53.019Z,25.67
2018-06-21T11:46:53.332Z,25.38
2018-06-21T11:47:53.029Z,24.97
2018-06-21T11:48:53.024Z,24.97
2018-06-21T11:49:53.031Z,25.19
2018-06-21T11:50:53.032Z,25.42
2018-06-21T11:51:53.029Z,25.62
2018-06-21T11:52:52.772Z,25.53
2018-06-21T11:53:52.770Z,25.17
2018-06-21T11:54:53.036Z,24.98
2018-06-21T11:55:52.772Z,24.59
2018-06-21T11:56:52.770Z,24.17
2018-06-21T11:57:52.775Z,24.42
2018-06-21T11:58:52.511Z,23.49
2018-06-21T11:59:52.776Z,23.38
2018-06-21T12:00:52.782Z,22.96
2018-06-21T12:01:52.903Z,23.42
2018-06-21T12:02:52.776Z,22.72
2018-06-21T12:03:53.042Z,22.57
2018-06-21T12:04:52.785Z,22.68
2018-06-21T12:05:53.075Z,22.44
2018-06-21T12:06:52.814Z,22.97
2018-06-21T12:07:52.775Z,23.61
2018-06-21T12:08:53.226Z,24.16
2018-06-21T12:09:53.041Z,24.29
2018-06-21T12:10:52.773Z,24.71
2018-06-21T12:11:52.773Z,24.75
2018-06-21T12:12:52.772Z,25.25
2018-06-21T12:13:52.509Z,25.56
2018-06-21T12:14:52.510Z,25.49
2018-06-21T12:15:52.774Z,25.19
2018-06-21T12:16:53.043Z,24.31
2018-06-21T12:17:53.039Z,24.05
2018-06-21T12:18:53.036Z,23.6
2018-06-21T12:19:52.791Z,23.67
2018-06-21T12:20:52.958Z,23.62
2018-06-21T12:21:53.036Z,23.12
2018-06-21T12:22:53.057Z,22.64
2018-06-21T12:23:52.788Z,22.92
2018-06-21T12:24:52.779Z,23.27
2018-06-21T12:25:52.780Z,23.62
2018-06-21T12:26:53.047Z,24.23
2018-06-21T12:27:52.520Z,24.44
2018-06-21T12:28:52.777Z,24.16
2018-06-21T12:29:52.515Z,24.38
2018-06-21T12:30:52.777Z,24.87
2018-06-21T12:31:53.067Z,25.2
2018-06-21T12:32:52.780Z,25.05
2018-06-21T12:33:52.784Z,25.07
2018-06-21T12:34:52.519Z,25
2018-06-21T12:35:52.522Z,24.76
2018-06-21T12:36:52.791Z,24.05
2018-06-21T12:37:52.530Z,24.38
2018-06-21T12:38:52.791Z,24.49
2018-06-21T12:39:52.820Z,24.87
2018-06-21T12:40:53.111Z,24.6
2018-06-21T12:41:53.068Z,24.92
2018-06-21T12:42:53.065Z,24.64
2018-06-21T12:43:52.798Z,24.45
2018-06-21T12:44:53.069Z,24.54
2018-06-21T12:45:53.082Z,24.54
2018-06-21T12:46:52.812Z,24.6
2018-06-21T12:47:52.548Z,24.6
2018-06-21T12:48:52.549Z,24.44
2018-06-21T12:49:53.086Z,24.61
2018-06-21T12:50:52.555Z,25.05
2018-06-21T12:51:53.085Z,25.19
2018-06-21T12:52:52.823Z,25.19
2018-06-21T12:53:53.102Z,25.27
2018-06-21T12:54:52.834Z,25.5
2018-06-21T12:55:52.834Z,25.19